sensor_id;sensor_type;location;lat;lon;timestamp;pressure;altitude;pressure_sealevel;temperature;humidity
2711;BME280;20721;47.402;8.550;2023-09-18T00:01:55;95638;;;22.80;60.35
2711;BME280;20721;47.402;8.550;2023-09-18T00:03:55;95641;;;22.89;60.28
2711;BME280;20721;47.402;8.550;2023-09-18T00:05:55;95641;;;22.98;60.16
2711;BME280;20721;47.402;8.550;2023-09-18T00:07:55;95651;;;23.02;60.06
2711;BME280;20721;47.402;8.550;2023-09-18T00:09:55;95662;;;22.91;60.15
2711;BME280;20721;47.402;8.550;2023-09-18T00:12:55;95648;;;22.79;60.50
2711;BME280;20721;47.402;8.550;2023-09-18T00:14:55;95648;;;22.58;60.99
2711;BME280;20721;47.402;8.550;2023-09-18T00:17:00;95647;;;22.33;61.64
2711;BME280;20721;47.402;8.550;2023-09-18T00:18:55;95642;;;22.48;61.12
2711;BME280;20721;47.402;8.550;2023-09-18T00:20:55;95631;;;22.58;60.74
2711;BME280;20721;47.402;8.550;2023-09-18T00:22:55;95628;;;22.44;60.74
2711;BME280;20721;47.402;8.550;2023-09-18T00:24:55;95624;;;22.39;60.94
2711;BME280;20721;47.402;8.550;2023-09-18T00:26:55;95621;;;22.50;60.46
2711;BME280;20721;47.402;8.550;2023-09-18T00:29:55;95618;;;22.39;60.18
2711;BME280;20721;47.402;8.550;2023-09-18T00:31:55;95612;;;22.15;60.81
2711;BME280;20721;47.402;8.550;2023-09-18T00:33:55;95613;;;22.26;60.59
2711;BME280;20721;47.402;8.550;2023-09-18T00:35:55;95609;;;22.01;60.77
2711;BME280;20721;47.402;8.550;2023-09-18T00:37:55;95607;;;21.91;61.10
2711;BME280;20721;47.402;8.550;2023-09-18T00:39:55;95609;;;21.69;60.95
2711;BME280;20721;47.402;8.550;2023-09-18T00:41:55;95600;;;21.66;60.92
2711;BME280;20721;47.402;8.550;2023-09-18T00:43:55;95596;;;21.48;60.80
2711;BME280;20721;47.402;8.550;2023-09-18T00:45:55;95594;;;21.58;60.44
2711;BME280;20721;47.402;8.550;2023-09-18T00:47:55;95584;;;21.73;59.55
2711;BME280;20721;47.402;8.550;2023-09-18T00:49:55;95581;;;21.67;59.59
2711;BME280;20721;47.402;8.550;2023-09-18T00:51:55;95570;;;21.51;59.14
2711;BME280;20721;47.402;8.550;2023-09-18T00:53:55;95562;;;21.56;58.87
2711;BME280;20721;47.402;8.550;2023-09-18T00:55:55;95558;;;21.75;58.79
2711;BME280;20721;47.402;8.550;2023-09-18T00:57:55;95555;;;21.94;58.52
2711;BME280;20721;47.402;8.550;2023-09-18T00:59:55;95548;;;22.05;58.01
2711;BME280;20721;47.402;8.550;2023-09-18T01:01:55;95536;;;22.06;57.91
2711;BME280;20721;47.402;8.550;2023-09-18T01:03:55;95530;;;22.00;57.40
2711;BME280;20721;47.402;8.550;2023-09-18T01:05:55;95526;;;21.87;57.05
2711;BME280;20721;47.402;8.550;2023-09-18T01:07:55;95524;;;21.63;56.67
2711;BME280;20721;47.402;8.550;2023-09-18T01:09:55;95519;;;21.68;57.49
2711;BME280;20721;47.402;8.550;2023-09-18T01:12:13;95506;;;21.44;58.10
2711;BME280;20721;47.402;8.550;2023-09-18T01:13:59;95496;;;21.32;58.28
2711;BME280;20721;47.402;8.550;2023-09-18T01:15:57;95519;;;21.50;57.93
2711;BME280;20721;47.402;8.550;2023-09-18T01:17:55;95527;;;21.67;58.22
2711;BME280;20721;47.402;8.550;2023-09-18T01:19:55;95518;;;21.80;58.17
2711;BME280;20721;47.402;8.550;2023-09-18T01:21:55;95526;;;21.92;57.80
2711;BME280;20721;47.402;8.550;2023-09-18T01:24:55;95531;;;21.93;57.80
2711;BME280;20721;47.402;8.550;2023-09-18T01:26:55;95533;;;21.61;57.90
2711;BME280;20721;47.402;8.550;2023-09-18T01:28:55;95537;;;21.58;57.38
2711;BME280;20721;47.402;8.550;2023-09-18T01:30:55;95544;;;21.63;57.52
2711;BME280;20721;47.402;8.550;2023-09-18T01:32:55;95545;;;21.79;57.74
2711;BME280;20721;47.402;8.550;2023-09-18T01:34:56;95555;;;21.81;58.10
2711;BME280;20721;47.402;8.550;2023-09-18T01:37:56;95558;;;21.70;58.87
2711;BME280;20721;47.402;8.550;2023-09-18T01:39:58;95547;;;21.74;59.15
2711;BME280;20721;47.402;8.550;2023-09-18T01:41:55;95546;;;21.84;59.14
2711;BME280;20721;47.402;8.550;2023-09-18T01:43:55;95548;;;21.91;59.09
2711;BME280;20721;47.402;8.550;2023-09-18T01:45:55;95546;;;21.92;59.07
2711;BME280;20721;47.402;8.550;2023-09-18T01:47:55;95553;;;21.99;59.37
2711;BME280;20721;47.402;8.550;2023-09-18T01:49:55;95557;;;22.04;59.24
2711;BME280;20721;47.402;8.550;2023-09-18T01:53:55;95547;;;22.02;59.26
2711;BME280;20721;47.402;8.550;2023-09-18T01:55:55;95545;;;21.83;59.10
2711;BME280;20721;47.402;8.550;2023-09-18T01:57:55;95549;;;21.66;59.60
2711;BME280;20721;47.402;8.550;2023-09-18T01:59:55;95554;;;21.63;59.84
2711;BME280;20721;47.402;8.550;2023-09-18T02:01:55;95555;;;21.71;59.71
2711;BME280;20721;47.402;8.550;2023-09-18T02:04:06;95546;;;21.73;59.72
2711;BME280;20721;47.402;8.550;2023-09-18T02:05:55;95553;;;21.76;59.56
2711;BME280;20721;47.402;8.550;2023-09-18T02:07:56;95549;;;21.72;59.79
2711;BME280;20721;47.402;8.550;2023-09-18T02:09:55;95550;;;21.37;60.47
2711;BME280;20721;47.402;8.550;2023-09-18T02:11:55;95547;;;21.47;60.19
2711;BME280;20721;47.402;8.550;2023-09-18T02:13:56;95546;;;21.60;59.94
2711;BME280;20721;47.402;8.550;2023-09-18T02:15:55;95555;;;21.72;59.80
2711;BME280;20721;47.402;8.550;2023-09-18T02:17:55;95568;;;21.77;59.86
2711;BME280;20721;47.402;8.550;2023-09-18T02:19:55;95580;;;21.82;59.78
2711;BME280;20721;47.402;8.550;2023-09-18T02:21:56;95586;;;21.86;59.96
2711;BME280;20721;47.402;8.550;2023-09-18T02:24:55;95569;;;21.84;60.21
2711;BME280;20721;47.402;8.550;2023-09-18T02:26:55;95572;;;21.83;60.51
2711;BME280;20721;47.402;8.550;2023-09-18T02:28:57;95583;;;21.82;60.73
2711;BME280;20721;47.402;8.550;2023-09-18T02:30:55;95594;;;21.76;60.96
2711;BME280;20721;47.402;8.550;2023-09-18T02:32:55;95605;;;21.74;61.16
2711;BME280;20721;47.402;8.550;2023-09-18T02:34:55;95614;;;21.71;61.25
2711;BME280;20721;47.402;8.550;2023-09-18T02:36:55;95630;;;21.64;61.45
2711;BME280;20721;47.402;8.550;2023-09-18T02:38:55;95640;;;21.43;61.86
2711;BME280;20721;47.402;8.550;2023-09-18T02:40:56;95642;;;21.11;62.68
2711;BME280;20721;47.402;8.550;2023-09-18T02:42:55;95657;;;21.05;62.66
2711;BME280;20721;47.402;8.550;2023-09-18T02:44:55;95668;;;21.14;62.59
2711;BME280;20721;47.402;8.550;2023-09-18T02:46:55;95672;;;21.27;62.07
2711;BME280;20721;47.402;8.550;2023-09-18T02:48:56;95668;;;21.29;61.75
2711;BME280;20721;47.402;8.550;2023-09-18T02:50:55;95676;;;21.18;62.29
2711;BME280;20721;47.402;8.550;2023-09-18T02:52:55;95680;;;21.26;61.55
2711;BME280;20721;47.402;8.550;2023-09-18T02:54:56;95682;;;21.02;61.75
2711;BME280;20721;47.402;8.550;2023-09-18T02:56:55;95685;;;20.78;62.49
2711;BME280;20721;47.402;8.550;2023-09-18T02:58:55;95687;;;20.65;61.87
2711;BME280;20721;47.402;8.550;2023-09-18T03:00:56;95705;;;20.73;61.72
2711;BME280;20721;47.402;8.550;2023-09-18T03:02:55;95714;;;20.84;60.53
2711;BME280;20721;47.402;8.550;2023-09-18T03:04:56;95727;;;20.93;59.61
2711;BME280;20721;47.402;8.550;2023-09-18T03:06:55;95730;;;21.08;59.18
2711;BME280;20721;47.402;8.550;2023-09-18T03:08:55;95733;;;21.29;58.25
2711;BME280;20721;47.402;8.550;2023-09-18T03:10:55;95736;;;21.38;58.40
2711;BME280;20721;47.402;8.550;2023-09-18T03:12:55;95736;;;21.44;58.47
2711;BME280;20721;47.402;8.550;2023-09-18T03:14:55;95721;;;21.52;58.60
2711;BME280;20721;47.402;8.550;2023-09-18T03:16:55;95720;;;21.62;58.44
2711;BME280;20721;47.402;8.550;2023-09-18T03:18:55;95717;;;21.74;58.38
2711;BME280;20721;47.402;8.550;2023-09-18T03:21:55;95716;;;21.78;58.74
2711;BME280;20721;47.402;8.550;2023-09-18T03:23:55;95708;;;21.61;59.60
2711;BME280;20721;47.402;8.550;2023-09-18T03:25:55;95721;;;21.42;60.45
2711;BME280;20721;47.402;8.550;2023-09-18T03:27:56;95727;;;21.49;60.36
2711;BME280;20721;47.402;8.550;2023-09-18T03:29:55;95723;;;21.42;60.60
2711;BME280;20721;47.402;8.550;2023-09-18T03:31:58;95718;;;21.48;60.63
2711;BME280;20721;47.402;8.550;2023-09-18T03:33:55;95720;;;21.52;60.53
2711;BME280;20721;47.402;8.550;2023-09-18T03:35:58;95726;;;21.52;60.61
2711;BME280;20721;47.402;8.550;2023-09-18T03:37:55;95721;;;21.54;60.58
2711;BME280;20721;47.402;8.550;2023-09-18T03:39:55;95718;;;21.66;60.24
2711;BME280;20721;47.402;8.550;2023-09-18T03:41:55;95713;;;21.54;60.43
2711;BME280;20721;47.402;8.550;2023-09-18T03:43:55;95713;;;21.45;60.65
2711;BME280;20721;47.402;8.550;2023-09-18T03:46:02;95712;;;21.48;60.56
2711;BME280;20721;47.402;8.550;2023-09-18T03:47:55;95705;;;21.56;60.19
2711;BME280;20721;47.402;8.550;2023-09-18T03:49:55;95711;;;21.46;60.41
2711;BME280;20721;47.402;8.550;2023-09-18T03:51:55;95708;;;21.55;60.30
2711;BME280;20721;47.402;8.550;2023-09-18T03:53:55;95698;;;21.47;60.44
2711;BME280;20721;47.402;8.550;2023-09-18T03:56:55;95693;;;21.45;60.61
2711;BME280;20721;47.402;8.550;2023-09-18T03:58:57;95693;;;21.29;61.16
2711;BME280;20721;47.402;8.550;2023-09-18T04:00:55;95697;;;21.21;61.12
2711;BME280;20721;47.402;8.550;2023-09-18T04:02:56;95698;;;21.18;61.16
2711;BME280;20721;47.402;8.550;2023-09-18T04:04:55;95696;;;21.24;61.17
2711;BME280;20721;47.402;8.550;2023-09-18T04:06:55;95697;;;21.31;60.95
2711;BME280;20721;47.402;8.550;2023-09-18T04:08:55;95701;;;21.24;60.96
2711;BME280;20721;47.402;8.550;2023-09-18T04:11:55;95691;;;21.20;61.09
2711;BME280;20721;47.402;8.550;2023-09-18T04:13:55;95681;;;21.13;61.26
2711;BME280;20721;47.402;8.550;2023-09-18T04:15:56;95673;;;21.13;61.40
2711;BME280;20721;47.402;8.550;2023-09-18T04:17:56;95672;;;21.16;61.41
2711;BME280;20721;47.402;8.550;2023-09-18T04:19:55;95675;;;21.19;61.37
2711;BME280;20721;47.402;8.550;2023-09-18T04:21:55;95684;;;21.20;61.34
2711;BME280;20721;47.402;8.550;2023-09-18T04:23:57;95688;;;21.16;61.52
2711;BME280;20721;47.402;8.550;2023-09-18T04:26:55;95689;;;21.22;61.44
2711;BME280;20721;47.402;8.550;2023-09-18T04:28:57;95684;;;21.26;61.24
2711;BME280;20721;47.402;8.550;2023-09-18T04:31:55;95691;;;21.28;61.12
2711;BME280;20721;47.402;8.550;2023-09-18T04:33:56;95692;;;21.31;61.11
2711;BME280;20721;47.402;8.550;2023-09-18T04:35:55;95698;;;21.30;61.15
2711;BME280;20721;47.402;8.550;2023-09-18T04:37:56;95705;;;21.33;61.26
2711;BME280;20721;47.402;8.550;2023-09-18T04:39:57;95703;;;21.35;61.18
2711;BME280;20721;47.402;8.550;2023-09-18T04:41:55;95705;;;21.38;61.21
2711;BME280;20721;47.402;8.550;2023-09-18T04:43:55;95707;;;21.36;61.24
2711;BME280;20721;47.402;8.550;2023-09-18T04:45:56;95711;;;21.38;61.25
2711;BME280;20721;47.402;8.550;2023-09-18T04:48:55;95719;;;21.39;61.31
2711;BME280;20721;47.402;8.550;2023-09-18T04:50:56;95724;;;21.42;61.31
2711;BME280;20721;47.402;8.550;2023-09-18T04:52:57;95724;;;21.28;61.53
2711;BME280;20721;47.402;8.550;2023-09-18T04:55:55;95716;;;21.28;61.55
2711;BME280;20721;47.402;8.550;2023-09-18T04:57:58;95712;;;21.28;61.62
2711;BME280;20721;47.402;8.550;2023-09-18T05:00:12;95709;;;21.17;61.89
2711;BME280;20721;47.402;8.550;2023-09-18T05:01:55;95706;;;20.90;62.72
2711;BME280;20721;47.402;8.550;2023-09-18T05:03:56;95702;;;20.31;64.50
2711;BME280;20721;47.402;8.550;2023-09-18T05:05:55;95709;;;20.02;65.72
2711;BME280;20721;47.402;8.550;2023-09-18T05:07:55;95707;;;20.21;65.37
2711;BME280;20721;47.402;8.550;2023-09-18T05:09:55;95707;;;20.37;65.03
2711;BME280;20721;47.402;8.550;2023-09-18T05:11:55;95705;;;20.29;65.16
2711;BME280;20721;47.402;8.550;2023-09-18T05:13:55;95709;;;19.94;66.24
2711;BME280;20721;47.402;8.550;2023-09-18T05:15:56;95709;;;19.57;67.70
2711;BME280;20721;47.402;8.550;2023-09-18T05:17:58;95716;;;19.31;68.83
2711;BME280;20721;47.402;8.550;2023-09-18T05:19:55;95714;;;19.47;68.13
2711;BME280;20721;47.402;8.550;2023-09-18T05:21:55;95709;;;19.88;66.86
2711;BME280;20721;47.402;8.550;2023-09-18T05:23:55;95698;;;20.24;65.67
2711;BME280;20721;47.402;8.550;2023-09-18T05:25:55;95691;;;20.50;64.66
2711;BME280;20721;47.402;8.550;2023-09-18T05:27:56;95684;;;20.70;64.00
2711;BME280;20721;47.402;8.550;2023-09-18T05:29:55;95695;;;20.79;63.46
2711;BME280;20721;47.402;8.550;2023-09-18T05:31:55;95697;;;20.89;63.25
2711;BME280;20721;47.402;8.550;2023-09-18T05:33:56;95682;;;20.94;63.07
2711;BME280;20721;47.402;8.550;2023-09-18T05:35:55;95680;;;20.92;63.06
2711;BME280;20721;47.402;8.550;2023-09-18T05:38:56;95694;;;20.94;63.12
2711;BME280;20721;47.402;8.550;2023-09-18T05:40:55;95687;;;21.01;63.03
2711;BME280;20721;47.402;8.550;2023-09-18T05:42:56;95692;;;21.09;62.76
2711;BME280;20721;47.402;8.550;2023-09-18T05:44:56;95700;;;21.18;62.52
2711;BME280;20721;47.402;8.550;2023-09-18T05:46:55;95700;;;21.24;62.34
2711;BME280;20721;47.402;8.550;2023-09-18T05:48:57;95706;;;21.29;62.28
2711;BME280;20721;47.402;8.550;2023-09-18T05:50:56;95706;;;21.35;62.21
2711;BME280;20721;47.402;8.550;2023-09-18T05:53:00;95702;;;21.42;61.95
2711;BME280;20721;47.402;8.550;2023-09-18T05:54:55;95709;;;21.47;61.87
2711;BME280;20721;47.402;8.550;2023-09-18T05:56:56;95710;;;21.50;61.61
2711;BME280;20721;47.402;8.550;2023-09-18T05:58:56;95715;;;21.51;61.40
2711;BME280;20721;47.402;8.550;2023-09-18T06:03:56;95714;;;21.52;61.46
2711;BME280;20721;47.402;8.550;2023-09-18T06:08:56;95715;;;21.52;61.28
2711;BME280;20721;47.402;8.550;2023-09-18T06:10:56;95713;;;21.53;61.29
2711;BME280;20721;47.402;8.550;2023-09-18T06:12:56;95720;;;21.55;61.07
2711;BME280;20721;47.402;8.550;2023-09-18T06:14:55;95728;;;21.58;61.42
2711;BME280;20721;47.402;8.550;2023-09-18T06:16:56;95735;;;21.63;61.56
2711;BME280;20721;47.402;8.550;2023-09-18T06:18:56;95736;;;21.66;61.47
2711;BME280;20721;47.402;8.550;2023-09-18T06:20:56;95744;;;21.70;61.37
2711;BME280;20721;47.402;8.550;2023-09-18T06:22:56;95754;;;21.72;61.50
2711;BME280;20721;47.402;8.550;2023-09-18T06:24:56;95757;;;21.72;61.59
2711;BME280;20721;47.402;8.550;2023-09-18T06:26:56;95766;;;21.73;61.48
2711;BME280;20721;47.402;8.550;2023-09-18T06:28:57;95763;;;21.72;61.49
2711;BME280;20721;47.402;8.550;2023-09-18T06:31:56;95761;;;21.72;61.55
2711;BME280;20721;47.402;8.550;2023-09-18T06:33:56;95763;;;21.76;61.46
2711;BME280;20721;47.402;8.550;2023-09-18T06:35:56;95765;;;21.80;61.26
2711;BME280;20721;47.402;8.550;2023-09-18T06:38:56;95783;;;21.83;61.17
2711;BME280;20721;47.402;8.550;2023-09-18T06:40:56;95794;;;21.82;61.02
2711;BME280;20721;47.402;8.550;2023-09-18T06:43:57;95797;;;21.83;61.08
2711;BME280;20721;47.402;8.550;2023-09-18T06:46:56;95808;;;21.84;61.17
2711;BME280;20721;47.402;8.550;2023-09-18T06:48:56;95812;;;21.86;61.30
2711;BME280;20721;47.402;8.550;2023-09-18T06:50:56;95816;;;21.83;61.35
2711;BME280;20721;47.402;8.550;2023-09-18T06:52:56;95829;;;21.87;61.29
2711;BME280;20721;47.402;8.550;2023-09-18T06:54:57;95830;;;21.89;61.53
2711;BME280;20721;47.402;8.550;2023-09-18T06:56:56;95837;;;21.88;61.39
2711;BME280;20721;47.402;8.550;2023-09-18T06:58:56;95832;;;21.91;61.33
2711;BME280;20721;47.402;8.550;2023-09-18T07:00:57;95834;;;21.76;61.66
2711;BME280;20721;47.402;8.550;2023-09-18T07:02:56;95832;;;21.70;61.99
2711;BME280;20721;47.402;8.550;2023-09-18T07:04:56;95844;;;21.56;62.27
2711;BME280;20721;47.402;8.550;2023-09-18T07:07:57;95823;;;21.39;62.99
2711;BME280;20721;47.402;8.550;2023-09-18T07:09:59;95826;;;21.44;62.79
2711;BME280;20721;47.402;8.550;2023-09-18T07:11:56;95838;;;21.57;62.37
2711;BME280;20721;47.402;8.550;2023-09-18T07:13:56;95848;;;21.69;62.12
2711;BME280;20721;47.402;8.550;2023-09-18T07:15:56;95849;;;21.71;62.21
2711;BME280;20721;47.402;8.550;2023-09-18T07:17:56;95849;;;21.61;62.13
2711;BME280;20721;47.402;8.550;2023-09-18T07:19:56;95848;;;21.66;62.37
2711;BME280;20721;47.402;8.550;2023-09-18T07:21:56;95834;;;21.65;62.19
2711;BME280;20721;47.402;8.550;2023-09-18T07:23:56;95831;;;21.53;62.52
2711;BME280;20721;47.402;8.550;2023-09-18T07:25:57;95831;;;21.54;62.47
2711;BME280;20721;47.402;8.550;2023-09-18T07:27:56;95828;;;21.56;62.56
2711;BME280;20721;47.402;8.550;2023-09-18T07:29:57;95830;;;21.56;61.89
2711;BME280;20721;47.402;8.550;2023-09-18T07:31:56;95836;;;21.58;62.13
2711;BME280;20721;47.402;8.550;2023-09-18T07:34:56;95840;;;21.60;62.31
2711;BME280;20721;47.402;8.550;2023-09-18T07:36:56;95832;;;21.55;62.21
2711;BME280;20721;47.402;8.550;2023-09-18T07:38:57;95839;;;21.50;62.44
2711;BME280;20721;47.402;8.550;2023-09-18T07:40:58;95849;;;21.52;62.71
2711;BME280;20721;47.402;8.550;2023-09-18T07:42:56;95849;;;21.60;62.57
2711;BME280;20721;47.402;8.550;2023-09-18T07:44:59;95859;;;21.64;62.08
2711;BME280;20721;47.402;8.550;2023-09-18T07:46:56;95866;;;21.65;62.03
2711;BME280;20721;47.402;8.550;2023-09-18T07:48:56;95873;;;21.56;61.46
2711;BME280;20721;47.402;8.550;2023-09-18T07:51:56;95859;;;21.30;62.62
2711;BME280;20721;47.402;8.550;2023-09-18T07:53:56;95864;;;21.35;62.69
2711;BME280;20721;47.402;8.550;2023-09-18T07:55:56;95867;;;21.29;62.07
2711;BME280;20721;47.402;8.550;2023-09-18T07:57:56;95875;;;21.27;61.93
2711;BME280;20721;47.402;8.550;2023-09-18T08:00:57;95881;;;21.18;62.43
2711;BME280;20721;47.402;8.550;2023-09-18T08:03:00;95881;;;21.21;62.81
2711;BME280;20721;47.402;8.550;2023-09-18T08:04:56;95877;;;21.25;62.74
2711;BME280;20721;47.402;8.550;2023-09-18T08:06:56;95874;;;21.24;62.93
2711;BME280;20721;47.402;8.550;2023-09-18T08:08:57;95876;;;21.15;62.76
2711;BME280;20721;47.402;8.550;2023-09-18T08:11:56;95880;;;21.20;62.96
2711;BME280;20721;47.402;8.550;2023-09-18T08:13:56;95882;;;21.23;62.95
2711;BME280;20721;47.402;8.550;2023-09-18T08:15:56;95886;;;21.18;63.28
2711;BME280;20721;47.402;8.550;2023-09-18T08:17:56;95886;;;21.21;63.36
2711;BME280;20721;47.402;8.550;2023-09-18T08:19:56;95891;;;21.09;63.71
2711;BME280;20721;47.402;8.550;2023-09-18T08:21:57;95904;;;21.04;65.01
2711;BME280;20721;47.402;8.550;2023-09-18T08:23:56;95911;;;20.98;65.30
2711;BME280;20721;47.402;8.550;2023-09-18T08:25:57;95920;;;21.05;66.30
2711;BME280;20721;47.402;8.550;2023-09-18T08:28:56;95916;;;20.85;65.79
2711;BME280;20721;47.402;8.550;2023-09-18T08:30:56;95913;;;20.79;65.09
2711;BME280;20721;47.402;8.550;2023-09-18T08:32:56;95912;;;20.78;65.29
2711;BME280;20721;47.402;8.550;2023-09-18T08:34:56;95910;;;20.52;65.75
2711;BME280;20721;47.402;8.550;2023-09-18T08:36:56;95914;;;20.53;67.02
2711;BME280;20721;47.402;8.550;2023-09-18T08:38:56;95912;;;20.64;66.36
2711;BME280;20721;47.402;8.550;2023-09-18T08:40:57;95910;;;20.64;67.08
2711;BME280;20721;47.402;8.550;2023-09-18T08:42:56;95909;;;20.42;66.96
2711;BME280;20721;47.402;8.550;2023-09-18T08:44:56;95909;;;20.50;66.53
2711;BME280;20721;47.402;8.550;2023-09-18T08:46:56;95913;;;20.51;65.30
2711;BME280;20721;47.402;8.550;2023-09-18T08:48:57;95905;;;20.22;65.63
2711;BME280;20721;47.402;8.550;2023-09-18T08:50:56;95914;;;20.09;67.43
2711;BME280;20721;47.402;8.550;2023-09-18T08:52:56;95923;;;20.15;67.46
2711;BME280;20721;47.402;8.550;2023-09-18T08:54:56;95938;;;19.89;66.75
2711;BME280;20721;47.402;8.550;2023-09-18T08:56:56;95942;;;19.91;67.25
2711;BME280;20721;47.402;8.550;2023-09-18T08:58:57;95937;;;20.14;67.50
2711;BME280;20721;47.402;8.550;2023-09-18T09:00:57;95932;;;20.18;67.74
2711;BME280;20721;47.402;8.550;2023-09-18T09:02:56;95929;;;19.98;65.62
2711;BME280;20721;47.402;8.550;2023-09-18T09:04:56;95934;;;19.98;65.55
2711;BME280;20721;47.402;8.550;2023-09-18T09:06:59;95939;;;19.79;66.66
2711;BME280;20721;47.402;8.550;2023-09-18T09:08:56;95945;;;19.68;67.40
2711;BME280;20721;47.402;8.550;2023-09-18T09:10:57;95952;;;19.84;67.29
2711;BME280;20721;47.402;8.550;2023-09-18T09:12:57;95956;;;19.95;67.66
2711;BME280;20721;47.402;8.550;2023-09-18T09:15:01;95957;;;20.12;66.56
2711;BME280;20721;47.402;8.550;2023-09-18T09:16:59;95954;;;20.21;66.77
2711;BME280;20721;47.402;8.550;2023-09-18T09:18:56;95961;;;20.30;66.47
2711;BME280;20721;47.402;8.550;2023-09-18T09:21:59;95951;;;20.31;66.43
2711;BME280;20721;47.402;8.550;2023-09-18T09:23:56;95946;;;20.32;64.73
2711;BME280;20721;47.402;8.550;2023-09-18T09:26:11;95952;;;19.86;64.63
2711;BME280;20721;47.402;8.550;2023-09-18T09:27:57;95958;;;19.49;67.28
2711;BME280;20721;47.402;8.550;2023-09-18T09:29:58;95953;;;19.30;66.88
2711;BME280;20721;47.402;8.550;2023-09-18T09:32:05;95958;;;19.27;67.46
2711;BME280;20721;47.402;8.550;2023-09-18T09:33:56;95962;;;19.21;68.65
2711;BME280;20721;47.402;8.550;2023-09-18T09:35:56;95960;;;19.15;70.00
2711;BME280;20721;47.402;8.550;2023-09-18T09:37:57;95966;;;19.29;70.43
2711;BME280;20721;47.402;8.550;2023-09-18T09:40:56;95970;;;19.28;69.60
2711;BME280;20721;47.402;8.550;2023-09-18T09:43:00;95971;;;19.18;69.39
2711;BME280;20721;47.402;8.550;2023-09-18T09:45:00;95971;;;19.28;70.16
2711;BME280;20721;47.402;8.550;2023-09-18T09:46:57;95968;;;19.27;67.87
2711;BME280;20721;47.402;8.550;2023-09-18T09:48:58;95970;;;19.14;68.65
2711;BME280;20721;47.402;8.550;2023-09-18T09:50:57;95969;;;18.95;69.45
2711;BME280;20721;47.402;8.550;2023-09-18T09:52:56;95974;;;19.10;70.30
2711;BME280;20721;47.402;8.550;2023-09-18T09:54:56;95978;;;19.16;68.54
2711;BME280;20721;47.402;8.550;2023-09-18T09:56:56;95973;;;18.98;68.15
2711;BME280;20721;47.402;8.550;2023-09-18T09:59:00;95985;;;18.84;69.67
2711;BME280;20721;47.402;8.550;2023-09-18T10:01:01;95988;;;18.82;70.10
2711;BME280;20721;47.402;8.550;2023-09-18T10:02:58;95981;;;18.94;69.67
2711;BME280;20721;47.402;8.550;2023-09-18T10:04:56;95984;;;18.91;69.06
2711;BME280;20721;47.402;8.550;2023-09-18T10:06:57;95979;;;19.10;69.42
2711;BME280;20721;47.402;8.550;2023-09-18T10:08:57;95971;;;19.24;68.29
2711;BME280;20721;47.402;8.550;2023-09-18T10:11:08;95964;;;19.32;68.14
2711;BME280;20721;47.402;8.550;2023-09-18T10:12:57;95954;;;19.45;68.87
2711;BME280;20721;47.402;8.550;2023-09-18T10:15:03;95955;;;19.66;67.50
2711;BME280;20721;47.402;8.550;2023-09-18T10:16:56;95959;;;19.61;68.15
2711;BME280;20721;47.402;8.550;2023-09-18T10:19:03;95962;;;19.35;68.74
2711;BME280;20721;47.402;8.550;2023-09-18T10:21:03;95968;;;19.33;69.38
2711;BME280;20721;47.402;8.550;2023-09-18T10:22:56;95982;;;19.30;69.83
2711;BME280;20721;47.402;8.550;2023-09-18T10:24:57;95989;;;19.18;69.87
2711;BME280;20721;47.402;8.550;2023-09-18T10:26:57;95984;;;19.17;69.19
2711;BME280;20721;47.402;8.550;2023-09-18T10:28:58;95981;;;19.09;70.07
2711;BME280;20721;47.402;8.550;2023-09-18T10:30:57;95981;;;18.94;71.00
2711;BME280;20721;47.402;8.550;2023-09-18T10:32:59;95981;;;18.97;71.06
2711;BME280;20721;47.402;8.550;2023-09-18T10:34:57;95987;;;19.24;71.34
2711;BME280;20721;47.402;8.550;2023-09-18T10:36:57;95982;;;19.60;70.19
2711;BME280;20721;47.402;8.550;2023-09-18T10:38:57;95979;;;19.24;69.85
2711;BME280;20721;47.402;8.550;2023-09-18T10:40:57;95978;;;19.18;71.27
2711;BME280;20721;47.402;8.550;2023-09-18T10:42:57;95981;;;19.52;71.11
2711;BME280;20721;47.402;8.550;2023-09-18T10:44:56;95974;;;19.84;69.20
2711;BME280;20721;47.402;8.550;2023-09-18T10:46:56;95968;;;19.70;68.89
2711;BME280;20721;47.402;8.550;2023-09-18T10:48:56;95958;;;19.45;68.92
2711;BME280;20721;47.402;8.550;2023-09-18T10:50:58;95953;;;19.45;69.74
2711;BME280;20721;47.402;8.550;2023-09-18T10:52:57;95938;;;19.35;69.12
2711;BME280;20721;47.402;8.550;2023-09-18T10:54:56;95919;;;19.27;69.44
2711;BME280;20721;47.402;8.550;2023-09-18T10:56:57;95902;;;19.08;70.01
2711;BME280;20721;47.402;8.550;2023-09-18T10:58:58;95894;;;19.05;69.46
2711;BME280;20721;47.402;8.550;2023-09-18T11:00:59;95895;;;18.79;71.05
2711;BME280;20721;47.402;8.550;2023-09-18T11:03:14;95892;;;18.80;71.74
2711;BME280;20721;47.402;8.550;2023-09-18T11:04:56;95892;;;18.96;70.47
2711;BME280;20721;47.402;8.550;2023-09-18T11:08:59;95889;;;19.06;70.11
2711;BME280;20721;47.402;8.550;2023-09-18T11:10:58;95903;;;18.81;69.98
2711;BME280;20721;47.402;8.550;2023-09-18T11:12:57;95908;;;18.78;69.26
2711;BME280;20721;47.402;8.550;2023-09-18T11:14:57;95917;;;18.96;68.72
2711;BME280;20721;47.402;8.550;2023-09-18T11:16:56;95902;;;19.11;68.72
2711;BME280;20721;47.402;8.550;2023-09-18T11:21:12;95888;;;19.34;68.18
2711;BME280;20721;47.402;8.550;2023-09-18T11:23:19;95871;;;19.43;67.95
2711;BME280;20721;47.402;8.550;2023-09-18T11:26:57;95863;;;19.31;69.40
2711;BME280;20721;47.402;8.550;2023-09-18T11:28:59;95859;;;19.41;68.59
2711;BME280;20721;47.402;8.550;2023-09-18T11:31:01;95862;;;19.24;68.08
2711;BME280;20721;47.402;8.550;2023-09-18T11:32:57;95865;;;19.14;68.68
2711;BME280;20721;47.402;8.550;2023-09-18T11:35:06;95859;;;19.17;68.89
2711;BME280;20721;47.402;8.550;2023-09-18T11:36:57;95860;;;19.20;68.79
2711;BME280;20721;47.402;8.550;2023-09-18T11:39:03;95878;;;19.40;68.41
2711;BME280;20721;47.402;8.550;2023-09-18T11:40:57;95901;;;19.72;66.67
2711;BME280;20721;47.402;8.550;2023-09-18T11:44:58;95884;;;20.28;65.64
2711;BME280;20721;47.402;8.550;2023-09-18T11:46:57;95889;;;20.19;63.63
2711;BME280;20721;47.402;8.550;2023-09-18T11:48:57;95898;;;20.43;64.70
2711;BME280;20721;47.402;8.550;2023-09-18T11:50:57;95888;;;20.69;64.38
2711;BME280;20721;47.402;8.550;2023-09-18T11:52:56;95882;;;20.96;64.44